Time;durP1;ratioP1;P1;durP2;ratioP2;P2;SDS_P1;SDS_P2;PMS_P1;PMS_P2;Temp;Humidity;BMP_temperature;BMP_pressure;BME280_temperature;BME280_humidity;BME280_pressure;Samples;Min_cycle;Max_cycle;Signal;HPM_P1;HPM_P2
2021/05/20 00:00:51;;;;;;;;;;;28.00;94.40;;;;;;1789610;79;20204;-86
2021/05/20 00:03:22;;;;;;;;;;;28.10;94.60;;;;;;1767986;80;20232;-87
2021/05/20 00:05:53;;;;;;;;;;;28.10;94.60;;;;;;1780306;79;20164;-86
2021/05/20 00:08:23;;;;;;;;;;;28.10;94.60;;;;;;1763166;80;20451;-86
2021/05/20 00:10:53;;;;;;;;;;;28.10;94.60;;;;;;1832976;78;20210;-86
2021/05/20 00:13:23;;;;;;;;;;;28.10;94.70;;;;;;1813825;78;20174;-87
2021/05/20 00:15:55;;;;;;;;;;;28.10;94.80;;;;;;1816630;78;20261;-88
2021/05/20 00:18:26;;;;;;;;;;;28.10;94.90;;;;;;1825227;78;20202;-87
2021/05/20 00:20:59;;;;;;;;;;;28.10;94.90;;;;;;1830077;78;20517;-88
2021/05/20 00:23:27;;;;;;;;;;;28.10;94.90;;;;;;1829623;78;20139;-87
2021/05/20 00:26:01;;;;;;;;;;;28.10;95.00;;;;;;1809207;77;20698;-89
2021/05/20 00:28:31;;;;;;;;;;;28.10;95.00;;;;;;1757005;80;20216;-87
2021/05/20 00:31:07;;;;;;;;;;;28.10;95.00;;;;;;1774039;79;20437;-87
2021/05/20 00:33:42;;;;;;;;;;;28.10;95.10;;;;;;1817587;77;20119;-88
2021/05/20 00:36:16;;;;;;;;;;;28.10;95.20;;;;;;1822145;77;20257;-87
2021/05/20 00:38:46;;;;;;;;;;;28.20;95.10;;;;;;1822756;77;20254;-87
2021/05/20 00:41:16;;;;;;;;;;;28.10;95.20;;;;;;1816233;77;20253;-86
2021/05/20 00:43:45;;;;;;;;;;;28.20;95.10;;;;;;1818998;77;20226;-87
2021/05/20 00:46:15;;;;;;;;;;;28.20;95.00;;;;;;1824095;77;20237;-87
2021/05/20 00:48:45;;;;;;;;;;;28.20;95.00;;;;;;1812458;78;20131;-87
2021/05/20 00:51:15;;;;;;;;;;;28.30;95.00;;;;;;1834451;77;20519;-87
2021/05/20 00:53:46;;;;;;;;;;;28.30;94.90;;;;;;1833795;77;20253;-87
2021/05/20 00:56:16;;;;;;;;;;;28.40;94.70;;;;;;1832975;78;20233;-87
2021/05/20 00:58:46;;;;;;;;;;;28.40;94.80;;;;;;1833001;78;20186;-86
2021/05/20 01:01:17;;;;;;;;;;;28.50;94.60;;;;;;1794882;78;20244;-87
2021/05/20 01:03:46;;;;;;;;;;;28.50;94.50;;;;;;1768173;80;20126;-88
2021/05/20 01:06:16;;;;;;;;;;;28.60;94.40;;;;;;1780833;79;20257;-89
2021/05/20 01:08:46;;;;;;;;;;;28.70;94.40;;;;;;1814430;77;20240;-91
2021/05/20 01:11:18;;;;;;;;;;;28.70;94.10;;;;;;1824156;77;20233;-87
2021/05/20 01:13:47;;;;;;;;;;;28.70;94.20;;;;;;1832577;78;20250;-88
2021/05/20 01:16:17;;;;;;;;;;;28.80;94.20;;;;;;1836446;78;20230;-89
2021/05/20 01:18:47;;;;;;;;;;;28.90;94.00;;;;;;1835648;78;20202;-79
2021/05/20 01:21:17;;;;;;;;;;;28.90;93.90;;;;;;1832504;78;20209;-80
2021/05/20 01:23:47;;;;;;;;;;;29.00;93.70;;;;;;1832778;78;20180;-79
2021/05/20 01:26:16;;;;;;;;;;;29.10;93.50;;;;;;1834417;78;20159;-80
2021/05/20 01:28:46;;;;;;;;;;;29.20;93.30;;;;;;1831343;78;20225;-81
2021/05/20 01:31:16;;;;;;;;;;;29.30;93.00;;;;;;1832482;78;20264;-79
2021/05/20 01:33:46;;;;;;;;;;;29.40;93.10;;;;;;1804843;78;20490;-80
2021/05/20 01:36:17;;;;;;;;;;;29.50;92.80;;;;;;1805640;78;20204;-80
2021/05/20 01:38:57;;;;;;;;;;;29.60;92.60;;;;;;1833053;77;20244;-80
2021/05/20 01:41:27;;;;;;;;;;;29.80;92.70;;;;;;1825319;78;20441;-80
2021/05/20 01:43:59;;;;;;;;;;;29.90;92.40;;;;;;1823263;77;20214;-79
2021/05/20 01:46:29;;;;;;;;;;;30.00;92.30;;;;;;1828286;78;20233;-79
2021/05/20 01:48:59;;;;;;;;;;;30.20;91.60;;;;;;1835452;77;20245;-77
2021/05/20 01:51:28;;;;;;;;;;;30.30;90.80;;;;;;1814517;77;20228;-78
2021/05/20 01:53:58;;;;;;;;;;;30.40;90.70;;;;;;1835119;77;20245;-78
2021/05/20 01:56:32;;;;;;;;;;;30.50;90.50;;;;;;1820206;77;20273;-79
2021/05/20 01:58:59;;;;;;;;;;;30.60;90.30;;;;;;1820681;76;20245;-79
2021/05/20 02:01:29;;;;;;;;;;;30.80;88.80;;;;;;1812015;78;20178;-77
2021/05/20 02:03:59;;;;;;;;;;;30.90;88.70;;;;;;1814483;78;20218;-79
2021/05/20 02:06:29;;;;;;;;;;;31.00;88.60;;;;;;1820186;79;20214;-78
2021/05/20 02:08:58;;;;;;;;;;;31.10;89.20;;;;;;1822963;76;20193;-77
2021/05/20 02:11:29;;;;;;;;;;;31.10;88.60;;;;;;1814631;78;20186;-79
2021/05/20 02:13:59;;;;;;;;;;;31.20;88.60;;;;;;1810779;78;20234;-77
2021/05/20 02:16:28;;;;;;;;;;;31.40;88.30;;;;;;1819154;78;20257;-77
2021/05/20 02:18:58;;;;;;;;;;;31.50;88.00;;;;;;1826122;78;20799;-78
2021/05/20 02:21:28;;;;;;;;;;;31.60;87.20;;;;;;1828096;78;20198;-77
2021/05/20 02:23:58;;;;;;;;;;;31.60;86.10;;;;;;1819467;78;20446;-78
2021/05/20 02:26:27;;;;;;;;;;;31.70;86.00;;;;;;1827302;78;20245;-79
2021/05/20 02:28:57;;;;;;;;;;;31.70;85.50;;;;;;1819299;78;20206;-80
2021/05/20 02:31:27;;;;;;;;;;;31.80;84.80;;;;;;1826571;78;20178;-79
2021/05/20 02:33:58;;;;;;;;;;;31.90;85.40;;;;;;1810900;78;20214;-79
2021/05/20 02:36:27;;;;;;;;;;;31.90;87.20;;;;;;1826419;77;20210;-79
2021/05/20 02:38:57;;;;;;;;;;;32.00;86.70;;;;;;1823970;78;20157;-78
2021/05/20 02:41:27;;;;;;;;;;;32.10;86.00;;;;;;1821850;77;20131;-78
2021/05/20 02:43:57;;;;;;;;;;;32.30;83.90;;;;;;1822810;77;20192;-79
2021/05/20 02:46:26;;;;;;;;;;;32.40;84.80;;;;;;1804734;77;20229;-79
2021/05/20 02:48:57;;;;;;;;;;;32.50;84.30;;;;;;1824609;76;20225;-79
2021/05/20 02:51:27;;;;;;;;;;;32.50;82.50;;;;;;1825838;78;20496;-80
2021/05/20 02:53:56;;;;;;;;;;;32.60;82.10;;;;;;1825373;78;20209;-79
2021/05/20 02:56:26;;;;;;;;;;;32.60;82.80;;;;;;1829726;78;20438;-79
2021/05/20 02:58:56;;;;;;;;;;;32.70;82.20;;;;;;1814277;78;20206;-80
2021/05/20 03:01:27;;;;;;;;;;;32.70;86.40;;;;;;1825936;77;20266;-79
2021/05/20 03:03:57;;;;;;;;;;;32.70;82.40;;;;;;1830423;78;20155;-79
2021/05/20 03:06:27;;;;;;;;;;;32.80;81.10;;;;;;1825389;76;20223;-80
2021/05/20 03:08:57;;;;;;;;;;;32.80;81.30;;;;;;1826795;77;20232;-80
2021/05/20 03:11:28;;;;;;;;;;;32.90;81.90;;;;;;1824431;77;20249;-80
2021/05/20 03:13:58;;;;;;;;;;;33.00;81.10;;;;;;1829625;78;20206;-79
2021/05/20 03:16:28;;;;;;;;;;;33.10;80.50;;;;;;1759150;80;20158;-79
2021/05/20 03:18:57;;;;;;;;;;;33.20;79.70;;;;;;1824430;77;20204;-80
2021/05/20 03:21:27;;;;;;;;;;;33.30;79.40;;;;;;1817978;77;20267;-79
2021/05/20 03:23:58;;;;;;;;;;;33.40;78.80;;;;;;1813316;77;20198;-81
2021/05/20 03:26:27;;;;;;;;;;;33.40;78.80;;;;;;1825386;78;20217;-79
2021/05/20 03:28:57;;;;;;;;;;;33.40;78.30;;;;;;1799012;78;20272;-80
2021/05/20 03:31:27;;;;;;;;;;;33.30;78.60;;;;;;1788057;78;20155;-80
2021/05/20 03:33:57;;;;;;;;;;;33.40;79.20;;;;;;1809429;78;20243;-82
2021/05/20 03:36:27;;;;;;;;;;;33.50;78.20;;;;;;1816367;77;20162;-83
2021/05/20 03:38:56;;;;;;;;;;;33.60;77.10;;;;;;1815620;77;20254;-83
2021/05/20 03:41:26;;;;;;;;;;;33.70;77.20;;;;;;1806500;78;20250;-80
2021/05/20 03:43:57;;;;;;;;;;;33.60;77.50;;;;;;1820809;78;20165;-81
2021/05/20 03:46:28;;;;;;;;;;;33.60;76.70;;;;;;1833371;77;20167;-80
2021/05/20 03:48:58;;;;;;;;;;;33.50;76.90;;;;;;1818006;77;20181;-82
2021/05/20 03:51:28;;;;;;;;;;;33.50;76.50;;;;;;1814320;77;20185;-83
2021/05/20 03:53:58;;;;;;;;;;;33.60;76.80;;;;;;1789197;79;20175;-78
2021/05/20 03:56:28;;;;;;;;;;;33.70;77.60;;;;;;1764266;80;20190;-77
2021/05/20 03:58:58;;;;;;;;;;;33.80;77.10;;;;;;1809437;76;20197;-79
2021/05/20 04:01:28;;;;;;;;;;;33.90;76.30;;;;;;1821858;77;20513;-77
2021/05/20 04:03:57;;;;;;;;;;;34.00;75.70;;;;;;1815249;78;20239;-79
2021/05/20 04:06:27;;;;;;;;;;;34.10;74.50;;;;;;1819602;78;20117;-79
2021/05/20 04:08:57;;;;;;;;;;;34.20;74.30;;;;;;1803511;78;20202;-78
2021/05/20 04:11:28;;;;;;;;;;;34.30;74.10;;;;;;1799340;78;20193;-81
2021/05/20 04:13:58;;;;;;;;;;;34.30;74.30;;;;;;1810647;78;20524;-80
2021/05/20 04:16:28;;;;;;;;;;;34.20;75.30;;;;;;1807329;78;20174;-80
2021/05/20 04:18:58;;;;;;;;;;;34.30;75.10;;;;;;1815231;79;20132;-83
2021/05/20 04:21:28;;;;;;;;;;;34.30;75.00;;;;;;1824069;79;20172;-81
2021/05/20 04:23:58;;;;;;;;;;;34.30;74.10;;;;;;1806114;79;20442;-80
2021/05/20 04:26:29;;;;;;;;;;;34.20;74.20;;;;;;1809676;79;20217;-81
2021/05/20 04:28:59;;;;;;;;;;;34.00;73.80;;;;;;1800574;79;20217;-81
2021/05/20 04:31:30;;;;;;;;;;;33.90;73.90;;;;;;1816071;79;20513;-81
2021/05/20 04:34:00;;;;;;;;;;;33.80;74.90;;;;;;1805210;78;20469;-81
2021/05/20 04:36:30;;;;;;;;;;;33.90;75.00;;;;;;1814583;79;20161;-81
2021/05/20 04:39:00;;;;;;;;;;;34.10;74.80;;;;;;1815000;78;20414;-80
2021/05/20 04:41:31;;;;;;;;;;;34.20;74.50;;;;;;1815263;79;20228;-81
2021/05/20 04:44:01;;;;;;;;;;;34.40;73.70;;;;;;1813262;79;20120;-81
2021/05/20 04:46:31;;;;;;;;;;;34.60;73.40;;;;;;1826170;79;20161;-81
2021/05/20 04:49:02;;;;;;;;;;;34.60;72.50;;;;;;1826721;79;20183;-81
2021/05/20 04:51:33;;;;;;;;;;;34.60;71.50;;;;;;1820509;78;20217;-81
2021/05/20 04:54:03;;;;;;;;;;;34.50;73.80;;;;;;1817337;79;20439;-81
2021/05/20 04:56:35;;;;;;;;;;;34.30;73.00;;;;;;1821811;79;20179;-82
2021/05/20 04:59:05;;;;;;;;;;;34.30;72.50;;;;;;1801381;79;20358;-80
2021/05/20 05:01:35;;;;;;;;;;;34.30;72.50;;;;;;1816184;79;20187;-81
2021/05/20 05:04:05;;;;;;;;;;;34.30;71.70;;;;;;1817907;79;20276;-80
2021/05/20 05:06:35;;;;;;;;;;;34.30;71.10;;;;;;1821351;79;20517;-80
2021/05/20 05:09:05;;;;;;;;;;;34.40;70.50;;;;;;1825700;78;20131;-80
2021/05/20 05:11:35;;;;;;;;;;;34.50;70.30;;;;;;1820440;78;20430;-80
2021/05/20 05:14:05;;;;;;;;;;;34.60;70.10;;;;;;1818270;78;20449;-80
2021/05/20 05:16:35;;;;;;;;;;;34.80;73.30;;;;;;1823998;78;20175;-79
2021/05/20 05:19:05;;;;;;;;;;;34.80;70.70;;;;;;1818130;79;20230;-81
2021/05/20 05:21:35;;;;;;;;;;;35.00;70.40;;;;;;1807819;79;20174;-78
2021/05/20 05:24:06;;;;;;;;;;;35.20;68.90;;;;;;1810527;77;20281;-81
2021/05/20 05:26:37;;;;;;;;;;;35.20;68.70;;;;;;1830539;77;20170;-80
2021/05/20 05:29:07;;;;;;;;;;;35.30;69.10;;;;;;1829895;77;20222;-80
2021/05/20 05:31:37;;;;;;;;;;;35.30;69.50;;;;;;1824830;77;20186;-80
2021/05/20 05:34:10;;;;;;;;;;;35.20;71.10;;;;;;1819658;78;20139;-79
2021/05/20 05:36:41;;;;;;;;;;;35.10;72.10;;;;;;1823601;78;20498;-82
2021/05/20 05:39:10;;;;;;;;;;;34.90;72.70;;;;;;1812483;77;20201;-79
2021/05/20 05:41:40;;;;;;;;;;;34.70;72.00;;;;;;1826380;78;20182;-80
2021/05/20 05:44:12;;;;;;;;;;;34.60;73.10;;;;;;1824307;78;20210;-82
2021/05/20 05:46:43;;;;;;;;;;;34.40;72.20;;;;;;1824459;78;20412;-82
2021/05/20 05:51:51;;;;;;;;;;;34.30;74.10;;;;;;1810067;78;20205;-81
2021/05/20 05:54:17;;;;;;;;;;;34.20;74.00;;;;;;1820284;77;20212;-81
2021/05/20 05:56:47;;;;;;;;;;;34.10;75.30;;;;;;1811433;77;20208;-81
2021/05/20 05:59:20;;;;;;;;;;;34.10;75.60;;;;;;1753790;80;20181;-81
2021/05/20 06:01:53;;;;;;;;;;;34.10;75.80;;;;;;1824229;78;20162;-81
2021/05/20 06:04:24;;;;;;;;;;;34.10;75.00;;;;;;1829061;77;20191;-82
2021/05/20 06:06:56;;;;;;;;;;;34.00;75.00;;;;;;1814198;77;20202;-81
2021/05/20 06:09:25;;;;;;;;;;;34.00;74.30;;;;;;1819500;77;20132;-82
2021/05/20 06:11:57;;;;;;;;;;;33.90;75.50;;;;;;1821807;77;20197;-81
2021/05/20 06:14:26;;;;;;;;;;;33.90;75.80;;;;;;1811507;78;20492;-77
2021/05/20 06:16:56;;;;;;;;;;;33.80;75.30;;;;;;1814502;78;20615;-75
2021/05/20 06:19:26;;;;;;;;;;;34.00;74.90;;;;;;1809191;77;20247;-80
2021/05/20 06:21:56;;;;;;;;;;;34.10;74.10;;;;;;1818842;77;20184;-79
2021/05/20 06:24:26;;;;;;;;;;;34.20;73.80;;;;;;1813256;77;20194;-79
2021/05/20 06:26:57;;;;;;;;;;;34.30;74.80;;;;;;1824045;77;20233;-79
2021/05/20 06:29:27;;;;;;;;;;;34.40;74.90;;;;;;1814834;77;20113;-79
2021/05/20 06:31:58;;;;;;;;;;;34.40;74.40;;;;;;1819526;77;20214;-80
2021/05/20 06:34:31;;;;;;;;;;;34.30;74.10;;;;;;1824638;77;20130;-81
2021/05/20 06:37:02;;;;;;;;;;;34.30;72.80;;;;;;1813789;78;20357;-80
2021/05/20 06:39:34;;;;;;;;;;;34.10;72.80;;;;;;1808355;78;20145;-80
2021/05/20 06:42:04;;;;;;;;;;;34.00;74.10;;;;;;1808583;78;20300;-81
2021/05/20 06:44:35;;;;;;;;;;;33.80;74.30;;;;;;1809902;78;20132;-81
2021/05/20 06:47:05;;;;;;;;;;;33.70;75.20;;;;;;1807252;79;20120;-80
2021/05/20 06:49:35;;;;;;;;;;;33.60;75.30;;;;;;1812182;78;20221;-79
2021/05/20 06:52:05;;;;;;;;;;;33.50;75.40;;;;;;1807295;78;20140;-80
2021/05/20 06:54:36;;;;;;;;;;;33.50;76.10;;;;;;1808987;78;20217;-80
2021/05/20 06:57:09;;;;;;;;;;;33.40;76.10;;;;;;1811917;78;20205;-79
2021/05/20 07:02:08;;;;;;;;;;;33.30;76.90;;;;;;1801357;78;20217;-82
2021/05/20 07:04:40;;;;;;;;;;;33.20;78.00;;;;;;1815714;78;20179;-81
2021/05/20 07:07:10;;;;;;;;;;;33.20;79.80;;;;;;1824518;78;20140;-79
2021/05/20 07:09:40;;;;;;;;;;;33.00;80.30;;;;;;1829779;77;20181;-80
2021/05/20 07:12:13;;;;;;;;;;;33.00;80.50;;;;;;1830231;77;20233;-80
2021/05/20 07:14:46;;;;;;;;;;;32.90;80.30;;;;;;1865892;76;20199;-81
2021/05/20 07:17:17;;;;;;;;;;;32.70;80.40;;;;;;1839884;76;20193;-80
2021/05/20 07:19:48;;;;;;;;;;;32.50;80.10;;;;;;1828887;77;20123;-81
2021/05/20 07:22:18;;;;;;;;;;;32.40;79.70;;;;;;1838679;77;20268;-80
2021/05/20 07:24:48;;;;;;;;;;;32.30;78.60;;;;;;1792587;78;20210;-81
2021/05/20 07:27:17;;;;;;;;;;;32.30;74.30;;;;;;1798228;77;20201;-81
2021/05/20 07:29:48;;;;;;;;;;;32.30;73.70;;;;;;1800753;78;20272;-81
2021/05/20 07:32:20;;;;;;;;;;;32.30;73.60;;;;;;1834153;77;20439;-81
2021/05/20 07:34:50;;;;;;;;;;;32.30;73.60;;;;;;1843474;77;20218;-81
2021/05/20 07:37:20;;;;;;;;;;;32.20;74.60;;;;;;1813558;77;20211;-82
2021/05/20 07:39:51;;;;;;;;;;;32.20;75.20;;;;;;1806739;78;20180;-82
2021/05/20 07:42:20;;;;;;;;;;;32.20;75.80;;;;;;1827875;77;20192;-82
2021/05/20 07:44:54;;;;;;;;;;;32.10;76.90;;;;;;1823073;78;20225;-81
2021/05/20 07:47:22;;;;;;;;;;;32.10;77.20;;;;;;1775643;79;20183;-81
2021/05/20 07:49:54;;;;;;;;;;;32.00;77.60;;;;;;1828718;77;20169;-82
2021/05/20 07:52:24;;;;;;;;;;;31.90;78.10;;;;;;1813189;79;20212;-82
2021/05/20 07:54:56;;;;;;;;;;;31.80;80.20;;;;;;1808353;79;20785;-81
2021/05/20 07:57:25;;;;;;;;;;;31.70;81.90;;;;;;1807600;78;20131;-81
2021/05/20 07:59:56;;;;;;;;;;;31.60;81.70;;;;;;1802743;79;20518;-81
2021/05/20 08:05:01;;;;;;;;;;;31.50;83.20;;;;;;1785056;79;20474;-82
2021/05/20 08:07:33;;;;;;;;;;;31.50;80.90;;;;;;1773196;79;20141;-81
2021/05/20 08:12:30;;;;;;;;;;;31.40;77.90;;;;;;1829312;78;20158;-82
2021/05/20 08:15:01;;;;;;;;;;;31.40;77.80;;;;;;1812187;78;20197;-82
2021/05/20 08:17:32;;;;;;;;;;;31.40;77.30;;;;;;1806494;78;20217;-82
2021/05/20 08:20:02;;;;;;;;;;;31.40;76.20;;;;;;1824955;77;20420;-82
2021/05/20 08:22:35;;;;;;;;;;;31.40;76.40;;;;;;1832347;77;20389;-81
2021/05/20 08:25:06;;;;;;;;;;;31.30;76.40;;;;;;1773547;80;20734;-81
2021/05/20 08:27:36;;;;;;;;;;;31.30;76.60;;;;;;1776568;80;20262;-79
2021/05/20 08:30:08;;;;;;;;;;;31.30;77.20;;;;;;1726947;81;20327;-80
2021/05/20 08:32:38;;;;;;;;;;;31.40;77.10;;;;;;1770780;80;20122;-82
2021/05/20 08:35:08;;;;;;;;;;;31.40;75.70;;;;;;1755491;81;20120;-82
2021/05/20 08:37:39;;;;;;;;;;;31.40;75.80;;;;;;1788841;78;20173;-81
2021/05/20 08:40:10;;;;;;;;;;;31.40;75.70;;;;;;1768419;79;20214;-81
2021/05/20 08:42:40;;;;;;;;;;;31.50;75.80;;;;;;1770860;79;20683;-80
2021/05/20 08:45:11;;;;;;;;;;;31.60;76.00;;;;;;1795154;79;20240;-79
2021/05/20 08:47:41;;;;;;;;;;;31.70;75.00;;;;;;1783560;79;20442;-78
2021/05/20 08:50:12;;;;;;;;;;;31.70;74.50;;;;;;1755903;81;20316;-78
2021/05/20 08:52:44;;;;;;;;;;;31.80;77.30;;;;;;1801900;78;20208;-78
2021/05/20 08:55:15;;;;;;;;;;;31.90;77.10;;;;;;1716003;82;20479;-79
2021/05/20 08:57:46;;;;;;;;;;;31.90;73.80;;;;;;1745372;80;20166;-79
2021/05/20 09:00:18;;;;;;;;;;;31.80;74.80;;;;;;1759391;79;20164;-78
2021/05/20 09:02:49;;;;;;;;;;;31.80;76.10;;;;;;1796790;78;20215;-79
2021/05/20 09:05:21;;;;;;;;;;;31.90;76.70;;;;;;1796805;78;20505;-78
2021/05/20 09:07:53;;;;;;;;;;;31.90;76.50;;;;;;1834036;77;20128;-79
2021/05/20 09:10:24;;;;;;;;;;;31.90;76.70;;;;;;1851485;76;20191;-77
2021/05/20 09:12:56;;;;;;;;;;;31.80;77.10;;;;;;1842137;77;20201;-77
2021/05/20 09:15:27;;;;;;;;;;;31.90;76.50;;;;;;1829970;77;20271;-78
2021/05/20 09:17:58;;;;;;;;;;;31.80;76.40;;;;;;1852969;77;20213;-78
2021/05/20 09:20:29;;;;;;;;;;;31.80;76.90;;;;;;1825614;77;20200;-78
2021/05/20 09:23:00;;;;;;;;;;;31.70;76.20;;;;;;1810190;77;20206;-78
2021/05/20 09:25:32;;;;;;;;;;;31.80;76.80;;;;;;1828466;77;20244;-78
2021/05/20 09:28:03;;;;;;;;;;;31.80;76.20;;;;;;1853035;76;20301;-77
2021/05/20 09:30:34;;;;;;;;;;;31.90;77.00;;;;;;1828852;77;20222;-80
2021/05/20 09:33:09;;;;;;;;;;;31.90;77.60;;;;;;1830977;77;20639;-80
2021/05/20 09:35:38;;;;;;;;;;;31.90;76.50;;;;;;1797679;78;20164;-79
2021/05/20 09:38:12;;;;;;;;;;;31.90;77.10;;;;;;1780320;79;20224;-80
2021/05/20 09:40:43;;;;;;;;;;;31.80;78.00;;;;;;1772743;79;20218;-79
2021/05/20 09:43:16;;;;;;;;;;;31.70;78.60;;;;;;1809634;78;20211;-79
2021/05/20 09:45:47;;;;;;;;;;;31.60;78.80;;;;;;1807692;78;20227;-78
2021/05/20 09:48:17;;;;;;;;;;;31.50;78.90;;;;;;1786048;79;20257;-80
2021/05/20 09:50:48;;;;;;;;;;;31.50;80.00;;;;;;1835482;77;20208;-80
2021/05/20 09:53:19;;;;;;;;;;;31.40;79.90;;;;;;1824533;77;20523;-80
2021/05/20 09:55:52;;;;;;;;;;;31.40;80.00;;;;;;1829940;78;20192;-80
2021/05/20 09:58:23;;;;;;;;;;;31.40;80.30;;;;;;1829375;77;20460;-80
2021/05/20 10:00:53;;;;;;;;;;;31.40;80.00;;;;;;1833925;77;20189;-80
2021/05/20 10:03:24;;;;;;;;;;;31.40;80.10;;;;;;1839818;77;20164;-79
2021/05/20 10:06:02;;;;;;;;;;;31.40;80.60;;;;;;1829094;77;20191;-78
2021/05/20 10:08:29;;;;;;;;;;;31.40;80.20;;;;;;1834193;77;20207;-78
2021/05/20 10:11:01;;;;;;;;;;;31.40;80.60;;;;;;1829784;77;20258;-80
2021/05/20 10:13:31;;;;;;;;;;;31.40;80.60;;;;;;1830368;76;20261;-80
2021/05/20 10:16:01;;;;;;;;;;;31.40;80.80;;;;;;1837530;76;20235;-79
2021/05/20 10:18:30;;;;;;;;;;;31.40;80.50;;;;;;1826637;77;20214;-78
2021/05/20 10:21:01;;;;;;;;;;;31.50;80.60;;;;;;1836312;78;20136;-78
2021/05/20 10:23:32;;;;;;;;;;;31.50;80.40;;;;;;1827563;77;20422;-78
2021/05/20 10:26:02;;;;;;;;;;;31.50;80.40;;;;;;1837033;77;20172;-78
2021/05/20 10:28:32;;;;;;;;;;;31.60;80.40;;;;;;1832548;77;20509;-79
2021/05/20 10:31:03;;;;;;;;;;;31.60;80.30;;;;;;1824590;77;20161;-79
2021/05/20 10:33:33;;;;;;;;;;;31.60;80.60;;;;;;1834122;77;20227;-78
2021/05/20 10:36:03;;;;;;;;;;;31.60;81.10;;;;;;1819321;77;20598;-78
2021/05/20 10:38:34;;;;;;;;;;;31.60;81.30;;;;;;1824624;78;20227;-77
2021/05/20 10:41:05;;;;;;;;;;;31.60;81.30;;;;;;1816190;78;20535;-78
2021/05/20 10:43:35;;;;;;;;;;;31.60;82.00;;;;;;1819307;78;20300;-77
2021/05/20 10:46:06;;;;;;;;;;;31.60;81.90;;;;;;1831744;78;20187;-78
2021/05/20 10:48:37;;;;;;;;;;;31.60;81.80;;;;;;1815489;78;20175;-78
2021/05/20 10:51:08;;;;;;;;;;;31.50;82.10;;;;;;1815857;79;20195;-78
2021/05/20 10:53:39;;;;;;;;;;;31.50;82.10;;;;;;1824726;78;20243;-78
2021/05/20 10:56:10;;;;;;;;;;;31.50;82.50;;;;;;1808642;79;20222;-78
2021/05/20 10:58:40;;;;;;;;;;;31.50;82.60;;;;;;1790060;78;20287;-78
2021/05/20 11:01:11;;;;;;;;;;;31.50;82.60;;;;;;1760072;81;20439;-79
2021/05/20 11:03:42;;;;;;;;;;;31.50;82.40;;;;;;1779044;78;20277;-78
2021/05/20 11:06:13;;;;;;;;;;;31.50;82.60;;;;;;1753246;80;20189;-79
2021/05/20 11:08:44;;;;;;;;;;;31.40;83.60;;;;;;1828442;78;20135;-78
2021/05/20 11:11:15;;;;;;;;;;;31.40;83.30;;;;;;1817663;77;20180;-78
2021/05/20 11:13:46;;;;;;;;;;;31.40;83.40;;;;;;1810216;77;20231;-78
2021/05/20 11:16:17;;;;;;;;;;;31.40;83.60;;;;;;1802227;77;20157;-78
2021/05/20 11:18:49;;;;;;;;;;;31.40;83.60;;;;;;1802388;78;20161;-78
2021/05/20 11:21:19;;;;;;;;;;;31.30;83.60;;;;;;1749402;80;20225;-79
2021/05/20 11:23:49;;;;;;;;;;;31.30;84.00;;;;;;1808274;77;20468;-79
2021/05/20 11:26:20;;;;;;;;;;;31.30;84.10;;;;;;1769578;80;20135;-79
2021/05/20 11:28:53;;;;;;;;;;;31.20;84.50;;;;;;1834062;77;20278;-78
2021/05/20 11:31:23;;;;;;;;;;;31.30;85.50;;;;;;1834425;77;20531;-78
2021/05/20 11:33:58;;;;;;;;;;;31.20;85.90;;;;;;1833403;76;20249;-78
2021/05/20 11:36:27;;;;;;;;;;;31.10;86.20;;;;;;1838981;76;20204;-78
2021/05/20 11:38:59;;;;;;;;;;;31.10;86.60;;;;;;1835754;78;20197;-78
2021/05/20 11:41:29;;;;;;;;;;;31.00;87.20;;;;;;1830187;77;20164;-78
2021/05/20 11:44:00;;;;;;;;;;;31.00;87.00;;;;;;1772099;79;20149;-78
2021/05/20 11:46:30;;;;;;;;;;;31.00;87.20;;;;;;1773381;79;20501;-78
2021/05/20 11:49:01;;;;;;;;;;;30.90;86.90;;;;;;1754111;80;20251;-78
2021/05/20 11:51:33;;;;;;;;;;;30.90;86.90;;;;;;1794956;78;20193;-79
2021/05/20 11:54:04;;;;;;;;;;;30.90;87.40;;;;;;1834911;76;20319;-77
2021/05/20 11:56:35;;;;;;;;;;;30.90;87.30;;;;;;1838130;77;20208;-78
2021/05/20 11:59:05;;;;;;;;;;;30.90;87.50;;;;;;1831360;77;20188;-78
2021/05/20 12:01:35;;;;;;;;;;;30.90;87.40;;;;;;1836059;77;20174;-78
2021/05/20 12:04:06;;;;;;;;;;;30.80;87.10;;;;;;1833245;76;20210;-78
2021/05/20 12:06:37;;;;;;;;;;;30.80;87.20;;;;;;1824089;77;20229;-78
2021/05/20 12:09:08;;;;;;;;;;;30.80;87.00;;;;;;1830232;78;20184;-78
2021/05/20 12:11:39;;;;;;;;;;;30.80;87.40;;;;;;1832794;77;20144;-78
2021/05/20 12:14:09;;;;;;;;;;;30.80;87.70;;;;;;1792688;78;20219;-78
2021/05/20 12:16:39;;;;;;;;;;;30.80;87.60;;;;;;1761503;79;20813;-78
2021/05/20 12:19:09;;;;;;;;;;;30.80;87.60;;;;;;1831868;77;20147;-79
2021/05/20 12:21:38;;;;;;;;;;;30.70;88.00;;;;;;1819509;78;20224;-79
2021/05/20 12:24:09;;;;;;;;;;;30.80;88.60;;;;;;1793428;79;20176;-78
2021/05/20 12:26:39;;;;;;;;;;;30.70;89.10;;;;;;1762608;80;20168;-78
2021/05/20 12:29:09;;;;;;;;;;;30.70;89.20;;;;;;1836991;77;20693;-78
2021/05/20 12:31:38;;;;;;;;;;;30.70;89.20;;;;;;1830212;77;21140;-78
2021/05/20 12:34:09;;;;;;;;;;;30.70;89.50;;;;;;1836628;77;20639;-78
2021/05/20 12:36:39;;;;;;;;;;;30.70;88.70;;;;;;1844002;77;20248;-78
2021/05/20 12:39:11;;;;;;;;;;;30.70;89.40;;;;;;1835006;77;20225;-77
2021/05/20 12:41:41;;;;;;;;;;;30.70;89.00;;;;;;1830211;77;20204;-78
2021/05/20 12:44:12;;;;;;;;;;;30.70;88.50;;;;;;1765003;79;20240;-78
2021/05/20 12:46:42;;;;;;;;;;;30.70;88.60;;;;;;1825039;77;20223;-79
2021/05/20 12:49:15;;;;;;;;;;;30.70;88.40;;;;;;1793044;78;20185;-79
2021/05/20 12:51:46;;;;;;;;;;;30.60;88.60;;;;;;1782719;78;20145;-79
2021/05/20 12:54:17;;;;;;;;;;;30.60;88.40;;;;;;1767043;79;20210;-78
2021/05/20 12:56:47;;;;;;;;;;;30.60;88.10;;;;;;1834312;77;20226;-78
2021/05/20 12:59:19;;;;;;;;;;;30.60;88.30;;;;;;1835731;76;20268;-78
2021/05/20 13:01:50;;;;;;;;;;;30.60;88.50;;;;;;1846880;76;20194;-78
2021/05/20 13:04:23;;;;;;;;;;;30.60;88.70;;;;;;1830277;76;20185;-78
2021/05/20 13:06:53;;;;;;;;;;;30.50;88.90;;;;;;1830459;76;20220;-80
2021/05/20 13:09:24;;;;;;;;;;;30.50;89.10;;;;;;1817326;77;20213;-79
2021/05/20 13:11:55;;;;;;;;;;;30.50;89.30;;;;;;1828209;77;20221;-79
2021/05/20 13:17:05;;;;;;;;;;;30.40;89.60;;;;;;1826327;77;20288;-79
2021/05/20 13:24:30;;;;;;;;;;;30.50;89.70;;;;;;1831656;77;20222;-80
2021/05/20 13:27:00;;;;;;;;;;;30.50;89.90;;;;;;1829387;77;20469;-79
2021/05/20 13:29:31;;;;;;;;;;;30.50;90.00;;;;;;1836880;77;20207;-79
2021/05/20 13:32:01;;;;;;;;;;;30.40;90.00;;;;;;1829371;77;20250;-79
2021/05/20 13:34:31;;;;;;;;;;;30.40;90.20;;;;;;1834511;77;20164;-78
2021/05/20 13:37:02;;;;;;;;;;;30.40;90.20;;;;;;1827909;77;20202;-78
2021/05/20 13:39:32;;;;;;;;;;;30.40;90.20;;;;;;1824364;77;20167;-79
2021/05/20 13:42:03;;;;;;;;;;;30.40;90.10;;;;;;1834871;77;20224;-79
2021/05/20 13:44:34;;;;;;;;;;;30.40;90.40;;;;;;1832648;77;20218;-78
2021/05/20 13:47:04;;;;;;;;;;;30.40;90.40;;;;;;1828210;77;20173;-78
2021/05/20 13:49:39;;;;;;;;;;;30.40;90.40;;;;;;1789773;78;20216;-79
2021/05/20 13:52:07;;;;;;;;;;;30.40;90.40;;;;;;1769625;78;20173;-78
2021/05/20 13:54:38;;;;;;;;;;;30.40;90.20;;;;;;1765850;80;20132;-79
2021/05/20 13:57:08;;;;;;;;;;;30.40;90.20;;;;;;1789543;77;20192;-79
2021/05/20 13:59:40;;;;;;;;;;;30.40;90.10;;;;;;1785114;78;20223;-79
2021/05/20 14:02:11;;;;;;;;;;;30.50;90.10;;;;;;1827467;77;20179;-80
2021/05/20 14:04:42;;;;;;;;;;;30.50;90.10;;;;;;1817903;77;20211;-79
2021/05/20 14:07:13;;;;;;;;;;;30.50;90.40;;;;;;1831367;78;20288;-81
2021/05/20 14:09:45;;;;;;;;;;;30.50;90.50;;;;;;1821748;77;20196;-79
2021/05/20 14:12:15;;;;;;;;;;;30.50;90.50;;;;;;1829580;76;20474;-80
2021/05/20 14:14:48;;;;;;;;;;;30.50;90.50;;;;;;1844616;76;20258;-81
2021/05/20 14:17:20;;;;;;;;;;;30.40;90.40;;;;;;1833028;77;20488;-81
2021/05/20 14:19:55;;;;;;;;;;;30.40;90.30;;;;;;1837633;77;20315;-81
2021/05/20 14:22:22;;;;;;;;;;;30.40;90.50;;;;;;1830039;77;20210;-80
2021/05/20 14:24:53;;;;;;;;;;;30.40;90.40;;;;;;1815834;77;20348;-80
2021/05/20 14:27:23;;;;;;;;;;;30.40;90.30;;;;;;1827373;77;20226;-80
2021/05/20 14:29:53;;;;;;;;;;;30.40;90.20;;;;;;1829082;77;20213;-80
2021/05/20 14:32:25;;;;;;;;;;;30.40;90.40;;;;;;1832448;77;20248;-80
2021/05/20 14:34:55;;;;;;;;;;;30.40;90.40;;;;;;1836153;77;20206;-81
2021/05/20 14:37:25;;;;;;;;;;;30.40;90.40;;;;;;1835876;77;20206;-81
2021/05/20 14:39:55;;;;;;;;;;;30.40;90.60;;;;;;1827205;77;20205;-80
2021/05/20 14:42:26;;;;;;;;;;;30.40;90.60;;;;;;1828899;78;20203;-80
2021/05/20 14:44:57;;;;;;;;;;;30.40;90.40;;;;;;1827100;77;20231;-80
2021/05/20 14:47:29;;;;;;;;;;;30.40;90.40;;;;;;1825905;78;20163;-80
2021/05/20 14:50:00;;;;;;;;;;;30.40;90.50;;;;;;1824939;78;20261;-80
2021/05/20 14:52:39;;;;;;;;;;;30.40;90.60;;;;;;1824259;78;20261;-80